createdAt,value
2023-06-27T00:00:58.027Z,240.39
2023-06-27T00:01:58.120Z,239.57
2023-06-27T00:02:58.290Z,239.99
2023-06-27T00:03:58.401Z,240.00
2023-06-27T00:04:58.281Z,240.54
2023-06-27T00:05:58.330Z,240.35
2023-06-27T00:06:58.433Z,241.13
2023-06-27T00:07:58.464Z,241.08
2023-06-27T00:08:58.518Z,241.92
2023-06-27T00:09:58.667Z,240.45
2023-06-27T00:10:58.628Z,240.64
2023-06-27T00:11:58.688Z,239.84
2023-06-27T00:12:58.761Z,242.71
2023-06-27T00:13:58.833Z,241.48
2023-06-27T00:14:58.929Z,241.48
2023-06-27T00:15:58.961Z,241.39
2023-06-27T00:16:59.020Z,241.60
2023-06-27T00:17:59.099Z,241.61
2023-06-27T00:18:59.131Z,241.43
2023-06-27T00:19:59.380Z,240.36
2023-06-27T00:20:59.257Z,241.46
2023-06-27T00:21:59.320Z,241.18
2023-06-27T00:22:59.382Z,241.82
2023-06-27T00:23:59.440Z,240.49
2023-06-27T00:24:59.506Z,241.88
2023-06-27T00:25:59.551Z,241.23
2023-06-27T00:26:59.611Z,242.42
2023-06-27T00:27:59.674Z,241.00
2023-06-27T00:28:59.754Z,241.32
2023-06-27T00:29:59.778Z,240.64
2023-06-27T00:30:59.887Z,241.72
2023-06-27T00:31:59.890Z,242.17
2023-06-27T00:32:59.960Z,241.41
2023-06-27T00:34:00.031Z,241.59
2023-06-27T00:35:00.070Z,243.12
2023-06-27T00:36:00.133Z,243.34
2023-06-27T00:37:00.196Z,241.52
2023-06-27T00:38:00.281Z,241.54
2023-06-27T00:39:00.308Z,241.38
2023-06-27T00:40:00.394Z,242.05
2023-06-27T00:41:00.447Z,239.96
2023-06-27T00:42:00.490Z,242.02
2023-06-27T00:43:00.561Z,243.22
2023-06-27T00:44:00.627Z,242.63
2023-06-27T00:45:00.678Z,243.67
2023-06-27T00:46:00.751Z,243.50
2023-06-27T00:47:00.809Z,243.52
2023-06-27T00:48:00.931Z,242.77
2023-06-27T00:49:00.993Z,244.05
2023-06-27T00:50:01.016Z,242.89
2023-06-27T00:51:01.070Z,242.18
2023-06-27T00:52:01.108Z,243.76
2023-06-27T00:53:01.176Z,241.29
2023-06-27T00:54:01.263Z,242.77
2023-06-27T00:55:01.289Z,242.29
2023-06-27T00:56:01.353Z,243.26
2023-06-27T00:57:01.425Z,242.39
2023-06-27T00:58:01.558Z,242.35
2023-06-27T00:59:01.567Z,242.86
2023-06-27T01:00:01.610Z,243.52
2023-06-27T01:01:01.938Z,242.46
2023-06-27T01:02:01.720Z,243.83
2023-06-27T01:03:01.844Z,243.26
2023-06-27T01:04:01.909Z,242.77
2023-06-27T01:05:01.920Z,241.77
2023-06-27T01:06:09.008Z,243.19
2023-06-27T01:07:02.005Z,243.37
2023-06-27T01:08:01.966Z,243.39
2023-06-27T01:09:02.301Z,243.89
2023-06-27T01:10:01.943Z,243.73
2023-06-27T01:11:01.936Z,242.36
2023-06-27T01:12:01.937Z,244.28
2023-06-27T01:13:01.917Z,242.59
2023-06-27T01:14:01.914Z,243.76
2023-06-27T01:15:01.913Z,244.40
2023-06-27T01:16:01.914Z,244.15
2023-06-27T01:17:01.889Z,242.73
2023-06-27T01:18:01.932Z,244.22
2023-06-27T01:19:01.874Z,243.84
2023-06-27T01:20:01.863Z,242.80
2023-06-27T01:21:01.856Z,242.01
2023-06-27T01:22:01.853Z,242.47
2023-06-27T01:23:01.848Z,242.56
2023-06-27T01:24:01.848Z,242.63
2023-06-27T01:25:01.853Z,241.95
2023-06-27T01:26:01.825Z,243.43
2023-06-27T01:27:01.822Z,242.62
2023-06-27T01:28:01.811Z,243.15
2023-06-27T01:29:01.870Z,244.20
2023-06-27T01:30:01.918Z,241.67
2023-06-27T01:31:02.050Z,242.35
2023-06-27T01:32:02.049Z,242.42
2023-06-27T01:33:02.166Z,241.34
2023-06-27T01:34:02.146Z,242.88
2023-06-27T01:35:02.221Z,242.64
2023-06-27T01:36:02.261Z,242.75
2023-06-27T01:37:02.304Z,243.34
2023-06-27T01:38:02.381Z,243.03
2023-06-27T01:39:02.436Z,242.24
2023-06-27T01:40:02.501Z,242.27
2023-06-27T01:41:02.536Z,242.00
2023-06-27T01:42:02.696Z,244.46
2023-06-27T01:43:02.700Z,241.47
2023-06-27T01:44:02.756Z,243.48
2023-06-27T01:45:02.789Z,241.67
2023-06-27T01:46:02.879Z,243.76
2023-06-27T01:47:02.900Z,242.24
2023-06-27T01:48:03.009Z,240.94
2023-06-27T01:49:03.011Z,241.83
2023-06-27T01:50:03.067Z,241.39
2023-06-27T01:51:03.116Z,242.78
2023-06-27T01:52:03.187Z,241.91
2023-06-27T01:53:03.250Z,243.46
2023-06-27T01:54:03.330Z,243.03
2023-06-27T01:55:03.383Z,242.87
2023-06-27T01:56:03.424Z,243.07
2023-06-27T01:57:03.489Z,242.25
2023-06-27T01:58:03.539Z,242.87
2023-06-27T01:59:03.601Z,241.67
2023-06-27T02:00:03.652Z,242.48
2023-06-27T02:01:03.752Z,243.05
2023-06-27T02:02:03.867Z,243.78
2023-06-27T02:03:03.974Z,241.45
2023-06-27T02:04:03.879Z,242.00
2023-06-27T02:05:03.925Z,242.65
2023-06-27T02:06:03.995Z,242.07
2023-06-27T02:07:04.074Z,243.38
2023-06-27T02:08:04.107Z,241.89
2023-06-27T02:09:04.197Z,241.25
2023-06-27T02:10:04.236Z,242.82
2023-06-27T02:11:04.304Z,240.62
2023-06-27T02:12:04.352Z,243.14
2023-06-27T02:13:04.414Z,242.31
2023-06-27T02:14:04.495Z,243.20
2023-06-27T02:15:04.539Z,241.75
2023-06-27T02:16:04.596Z,242.86
2023-06-27T02:17:04.653Z,242.68
2023-06-27T02:18:04.741Z,242.87
2023-06-27T02:19:04.773Z,241.85
2023-06-27T02:20:04.843Z,241.88
2023-06-27T02:21:04.905Z,241.29
2023-06-27T02:22:04.958Z,242.31
2023-06-27T02:23:05.029Z,241.40
2023-06-27T02:24:05.067Z,240.39
2023-06-27T02:25:05.133Z,243.45
2023-06-27T02:26:05.192Z,243.13
2023-06-27T02:27:05.256Z,242.44
2023-06-27T02:28:05.324Z,243.25
2023-06-27T02:29:05.399Z,241.94
2023-06-27T02:30:05.450Z,240.41
2023-06-27T02:31:05.592Z,240.94
2023-06-27T02:32:05.570Z,242.98
2023-06-27T02:33:05.649Z,242.32
2023-06-27T02:34:05.678Z,242.85
2023-06-27T02:35:05.737Z,243.14
2023-06-27T02:36:05.796Z,241.72
2023-06-27T02:37:05.881Z,242.02
2023-06-27T02:38:05.928Z,242.20
2023-06-27T02:39:05.985Z,240.94
2023-06-27T02:40:06.050Z,241.82
2023-06-27T02:41:06.102Z,241.08
2023-06-27T02:42:06.170Z,242.12
2023-06-27T02:43:06.213Z,242.66
2023-06-27T02:44:06.284Z,241.26
2023-06-27T02:45:06.345Z,242.14
2023-06-27T02:46:06.445Z,241.32
2023-06-27T02:47:06.494Z,242.29
2023-06-27T02:48:06.561Z,242.24
2023-06-27T02:49:06.611Z,241.72
2023-06-27T02:50:06.656Z,242.78
2023-06-27T02:51:06.713Z,240.68
2023-06-27T02:52:06.772Z,241.45
2023-06-27T02:53:06.860Z,242.27
2023-06-27T02:54:07.347Z,241.31
2023-06-27T02:55:06.970Z,241.72
2023-06-27T02:56:07.032Z,243.46
2023-06-27T02:57:07.050Z,241.69
2023-06-27T02:58:07.101Z,242.04
2023-06-27T02:59:07.352Z,241.78
2023-06-27T03:00:07.206Z,243.34
2023-06-27T03:01:07.269Z,242.70
2023-06-27T03:02:07.399Z,242.97
2023-06-27T03:03:07.427Z,242.31
2023-06-27T03:04:17.739Z,240.99
2023-06-27T03:05:08.395Z,241.19
2023-06-27T03:06:07.403Z,241.53
2023-06-27T03:07:07.497Z,242.00
2023-06-27T03:08:07.497Z,242.03
2023-06-27T03:09:07.855Z,243.20
2023-06-27T03:10:07.619Z,242.58
2023-06-27T03:11:07.685Z,243.22
2023-06-27T03:12:07.729Z,242.81
2023-06-27T03:13:07.774Z,242.77
2023-06-27T03:14:07.837Z,241.88
2023-06-27T03:15:07.889Z,241.71
2023-06-27T03:16:07.928Z,240.85
2023-06-27T03:17:07.985Z,242.72
2023-06-27T03:18:08.073Z,243.63
2023-06-27T03:19:08.059Z,241.62
2023-06-27T03:20:08.110Z,241.74
2023-06-27T03:21:08.144Z,240.39
2023-06-27T03:22:08.220Z,240.89
2023-06-27T03:23:08.256Z,242.23
2023-06-27T03:24:08.318Z,241.48
2023-06-27T03:25:08.363Z,243.32
2023-06-27T03:26:08.402Z,240.35
2023-06-27T03:27:08.874Z,241.89
2023-06-27T03:28:08.517Z,241.60
2023-06-27T03:29:08.566Z,240.74
2023-06-27T03:30:08.637Z,241.61
2023-06-27T03:31:08.651Z,241.43
2023-06-27T03:32:08.743Z,241.18
2023-06-27T03:33:08.822Z,240.17
2023-06-27T03:34:08.807Z,240.59
2023-06-27T03:35:08.819Z,242.37
2023-06-27T03:36:09.975Z,241.73
2023-06-27T03:37:09.071Z,242.46
2023-06-27T03:38:09.113Z,241.49
2023-06-27T03:39:09.157Z,242.69
2023-06-27T03:40:09.199Z,242.96
2023-06-27T03:41:09.235Z,241.58
2023-06-27T03:42:09.280Z,242.12
2023-06-27T03:43:09.282Z,240.71
2023-06-27T03:44:09.377Z,242.22
2023-06-27T03:45:09.352Z,242.02
2023-06-27T03:46:09.407Z,242.25
2023-06-27T03:47:09.434Z,242.83
2023-06-27T03:48:09.463Z,241.76
2023-06-27T03:49:09.500Z,240.96
2023-06-27T03:50:09.533Z,241.95
2023-06-27T03:51:09.583Z,243.06
2023-06-27T03:52:09.603Z,242.25
2023-06-27T03:53:09.632Z,240.82
2023-06-27T03:54:09.646Z,240.67
2023-06-27T03:55:09.678Z,242.44
2023-06-27T03:56:09.682Z,241.46
2023-06-27T03:57:09.713Z,241.41
2023-06-27T03:58:09.717Z,241.15
2023-06-27T03:59:09.745Z,242.13
2023-06-27T04:00:09.765Z,240.63
2023-06-27T04:01:09.772Z,242.57
2023-06-27T04:02:09.790Z,241.86
2023-06-27T04:03:09.883Z,243.17
2023-06-27T04:04:11.629Z,241.90
2023-06-27T04:05:09.876Z,241.55
2023-06-27T04:06:09.784Z,241.47
2023-06-27T04:07:09.844Z,240.97
2023-06-27T04:08:09.764Z,241.31
2023-06-27T04:09:09.761Z,242.23
2023-06-27T04:10:09.755Z,241.05
2023-06-27T04:11:09.765Z,240.46
2023-06-27T04:12:09.773Z,242.63
2023-06-27T04:13:09.739Z,241.37
2023-06-27T04:14:09.727Z,241.17
2023-06-27T04:15:09.712Z,240.28
2023-06-27T04:16:09.715Z,241.49
2023-06-27T04:17:09.839Z,240.42
2023-06-27T04:18:09.757Z,241.40
2023-06-27T04:19:09.705Z,239.85
2023-06-27T04:20:09.697Z,239.69
2023-06-27T04:21:09.684Z,240.61
2023-06-27T04:22:09.675Z,241.06
2023-06-27T04:23:09.698Z,241.17
2023-06-27T04:24:09.895Z,238.30
2023-06-27T04:25:09.656Z,242.23
2023-06-27T04:26:09.647Z,240.45
2023-06-27T04:27:09.649Z,239.90
2023-06-27T04:28:09.630Z,238.54
2023-06-27T04:29:09.648Z,239.92
2023-06-27T04:30:09.639Z,239.64
2023-06-27T04:31:09.625Z,240.60
2023-06-27T04:32:09.708Z,241.26
2023-06-27T04:33:09.677Z,239.97
2023-06-27T04:34:09.606Z,240.33
2023-06-27T04:35:09.596Z,239.48
2023-06-27T04:36:09.580Z,240.49
2023-06-27T04:37:09.588Z,241.17
2023-06-27T04:38:10.323Z,239.91
2023-06-27T04:39:09.560Z,240.37
2023-06-27T04:40:09.555Z,240.24
2023-06-27T04:41:09.542Z,241.98
2023-06-27T04:42:09.533Z,241.55
2023-06-27T04:43:09.533Z,240.57
2023-06-27T04:44:09.539Z,238.71
2023-06-27T04:45:09.515Z,239.36
2023-06-27T04:46:09.533Z,240.28
2023-06-27T04:47:09.508Z,240.49
2023-06-27T04:48:09.507Z,238.97
2023-06-27T04:49:09.495Z,240.42
2023-06-27T04:50:09.479Z,241.35
2023-06-27T04:51:09.499Z,240.27
2023-06-27T04:52:09.467Z,240.08
2023-06-27T04:53:09.483Z,241.30
2023-06-27T04:54:09.484Z,239.38
2023-06-27T04:55:09.454Z,241.31
2023-06-27T04:56:09.432Z,239.69
2023-06-27T04:57:13.083Z,238.93
2023-06-27T04:58:09.445Z,239.11
2023-06-27T04:59:09.429Z,239.23
2023-06-27T05:00:09.412Z,239.80
2023-06-27T05:01:09.459Z,239.90
2023-06-27T05:02:09.410Z,240.47
2023-06-27T05:03:09.450Z,241.71
2023-06-27T05:04:09.388Z,240.71
2023-06-27T05:05:09.494Z,239.74
2023-06-27T05:06:09.380Z,241.18
2023-06-27T05:07:09.422Z,238.76
2023-06-27T05:08:09.360Z,238.66
2023-06-27T05:09:09.367Z,240.58
2023-06-27T05:10:09.349Z,239.07
2023-06-27T05:11:09.341Z,238.35
2023-06-27T05:12:09.363Z,239.30
2023-06-27T05:13:09.323Z,240.35
2023-06-27T05:14:09.337Z,239.66
2023-06-27T05:15:09.311Z,239.14
2023-06-27T05:16:09.318Z,238.22
2023-06-27T05:17:09.313Z,239.40
2023-06-27T05:18:09.288Z,239.29
2023-06-27T05:19:09.299Z,241.44
2023-06-27T05:20:09.283Z,237.66
2023-06-27T05:21:09.283Z,239.16
2023-06-27T05:22:09.271Z,237.82
2023-06-27T05:23:09.281Z,238.52
2023-06-27T05:24:09.268Z,238.63
2023-06-27T05:25:09.270Z,239.16
2023-06-27T05:26:09.260Z,238.57
2023-06-27T05:27:09.237Z,237.59
2023-06-27T05:28:09.410Z,237.91
2023-06-27T05:29:09.309Z,238.08
2023-06-27T05:30:09.360Z,241.14
2023-06-27T05:31:09.463Z,240.48
2023-06-27T05:32:09.438Z,239.40
2023-06-27T05:33:09.563Z,240.39
2023-06-27T05:34:09.504Z,240.07
2023-06-27T05:35:09.522Z,226.02
2023-06-27T05:36:09.674Z,203.73
2023-06-27T05:37:09.664Z,121.19
2023-06-27T05:38:09.604Z,70.00
2023-06-27T05:39:09.630Z,89.25
2023-06-27T05:40:09.614Z,95.65
2023-06-27T05:41:09.662Z,71.88
2023-06-27T05:42:09.673Z,38.05
2023-06-27T05:43:09.692Z,19.90
2023-06-27T05:44:09.673Z,20.06
2023-06-27T05:45:09.662Z,25.61
2023-06-27T05:46:09.643Z,29.93
2023-06-27T05:47:09.654Z,25.00
2023-06-27T05:48:09.693Z,25.18
2023-06-27T05:49:09.656Z,29.98
2023-06-27T05:50:09.677Z,28.19
2023-06-27T05:51:09.756Z,26.23
2023-06-27T05:52:09.678Z,44.54
2023-06-27T05:53:09.700Z,30.49
2023-06-27T05:54:09.701Z,31.21
2023-06-27T05:55:09.716Z,41.74
2023-06-27T05:56:09.741Z,41.32
2023-06-27T05:57:09.751Z,44.82
2023-06-27T05:58:09.755Z,54.18
2023-06-27T05:59:09.816Z,42.32
2023-06-27T06:00:09.803Z,41.94
2023-06-27T06:01:09.766Z,57.78
2023-06-27T06:02:09.854Z,70.16
2023-06-27T06:03:09.933Z,78.76
2023-06-27T06:04:09.841Z,83.13
2023-06-27T06:05:09.814Z,91.13
2023-06-27T06:06:09.773Z,95.00
2023-06-27T06:07:09.803Z,104.45
2023-06-27T06:08:09.785Z,110.43
2023-06-27T06:09:09.803Z,119.28
2023-06-27T06:10:09.879Z,133.33
2023-06-27T06:11:09.856Z,141.05
2023-06-27T06:12:09.952Z,142.14
2023-06-27T06:13:09.982Z,139.88
2023-06-27T06:14:10.109Z,147.24
2023-06-27T06:15:10.123Z,160.63
2023-06-27T06:16:10.185Z,167.37
2023-06-27T06:17:10.238Z,173.93
2023-06-27T06:18:10.394Z,174.67
2023-06-27T06:19:10.359Z,175.55
2023-06-27T06:20:10.513Z,171.80
2023-06-27T06:21:10.454Z,152.43
2023-06-27T06:22:10.499Z,142.39
2023-06-27T06:23:10.513Z,114.46
2023-06-27T06:24:10.519Z,115.31
2023-06-27T06:25:10.529Z,86.38
2023-06-27T06:26:10.553Z,88.07
2023-06-27T06:27:10.558Z,67.04
2023-06-27T06:28:10.546Z,67.99
2023-06-27T06:29:10.952Z,37.26
2023-06-27T06:30:10.582Z,37.99
2023-06-27T06:31:10.627Z,50.45
2023-06-27T06:32:10.630Z,41.85
2023-06-27T06:33:10.659Z,57.52
2023-06-27T06:34:10.635Z,36.50
2023-06-27T06:35:10.640Z,25.09
2023-06-27T06:36:10.626Z,25.00
2023-06-27T06:37:10.669Z,28.87
2023-06-27T06:38:10.631Z,26.62
2023-06-27T06:39:10.990Z,32.74
2023-06-27T06:40:10.650Z,35.09
2023-06-27T06:41:10.659Z,35.37
2023-06-27T06:42:10.685Z,29.17
2023-06-27T06:43:10.714Z,29.19
2023-06-27T06:44:10.717Z,32.66
2023-06-27T06:45:10.761Z,42.46
2023-06-27T06:46:10.884Z,37.67
2023-06-27T06:47:10.759Z,34.60
2023-06-27T06:48:10.777Z,27.65
2023-06-27T06:49:10.801Z,29.45
2023-06-27T06:50:10.795Z,41.76
2023-06-27T06:51:10.811Z,42.12
2023-06-27T06:52:10.818Z,48.06
2023-06-27T06:53:10.831Z,45.85
2023-06-27T06:54:10.828Z,58.53
2023-06-27T06:55:10.832Z,55.83
2023-06-27T06:56:10.845Z,64.27
2023-06-27T06:57:10.851Z,65.52
2023-06-27T06:58:11.898Z,52.83
2023-06-27T06:59:10.912Z,35.66
2023-06-27T07:00:10.884Z,33.70
2023-06-27T07:01:11.000Z,38.76
2023-06-27T07:02:10.940Z,20.87
2023-06-27T07:03:10.996Z,28.84
2023-06-27T07:04:11.028Z,31.79
2023-06-27T07:05:10.974Z,27.96
2023-06-27T07:06:10.977Z,26.27
2023-06-27T07:07:11.075Z,25.17
2023-06-27T07:08:11.040Z,25.15
2023-06-27T07:09:11.052Z,14.04
2023-06-27T07:10:11.079Z,25.00
2023-06-27T07:11:11.091Z,24.79
2023-06-27T07:12:11.285Z,24.50
2023-06-27T07:13:11.169Z,25.50
2023-06-27T07:14:11.229Z,33.67
2023-06-27T07:15:11.240Z,35.46
2023-06-27T07:16:11.363Z,42.53
2023-06-27T07:17:11.320Z,35.86
2023-06-27T07:18:11.359Z,46.49
2023-06-27T07:19:11.403Z,38.44
2023-06-27T07:20:11.446Z,31.01
2023-06-27T07:21:11.543Z,36.07
2023-06-27T07:22:11.632Z,31.83
2023-06-27T07:23:11.607Z,43.46
2023-06-27T07:24:11.678Z,40.47
2023-06-27T07:25:11.721Z,33.32
2023-06-27T07:26:11.770Z,31.09
2023-06-27T07:27:11.853Z,39.50
2023-06-27T07:28:11.886Z,39.16
2023-06-27T07:29:12.009Z,41.75
2023-06-27T07:30:12.007Z,40.07
2023-06-27T07:31:12.189Z,41.80
2023-06-27T07:32:12.120Z,48.63
2023-06-27T07:33:12.219Z,48.72
2023-06-27T07:34:12.276Z,45.51
2023-06-27T07:35:12.330Z,50.11
2023-06-27T07:36:12.383Z,74.84
2023-06-27T07:37:12.419Z,96.43
2023-06-27T07:38:12.446Z,82.98
2023-06-27T07:39:12.506Z,79.80
2023-06-27T07:40:12.538Z,83.30
2023-06-27T07:41:12.570Z,93.93
2023-06-27T07:42:12.581Z,99.81
2023-06-27T07:43:12.622Z,101.01
2023-06-27T07:44:13.054Z,83.63
2023-06-27T07:45:12.634Z,102.17
2023-06-27T07:46:12.620Z,103.49
2023-06-27T07:47:12.605Z,109.61
2023-06-27T07:48:12.711Z,91.83
2023-06-27T07:49:12.966Z,101.79
2023-06-27T07:50:12.657Z,93.07
2023-06-27T07:51:12.663Z,102.32
2023-06-27T07:52:12.656Z,78.69
2023-06-27T07:53:12.750Z,91.40
2023-06-27T07:54:12.727Z,81.67
2023-06-27T07:55:12.708Z,69.57
2023-06-27T07:56:12.700Z,60.97
2023-06-27T07:57:12.728Z,76.40
2023-06-27T07:58:12.785Z,72.43
2023-06-27T07:59:12.972Z,74.06
2023-06-27T08:00:13.908Z,72.13
2023-06-27T08:01:12.877Z,72.31
2023-06-27T08:02:12.931Z,76.72
2023-06-27T08:03:13.033Z,100.67
2023-06-27T08:04:13.038Z,111.00
2023-06-27T08:05:12.963Z,102.58
2023-06-27T08:06:12.974Z,97.75
2023-06-27T08:07:13.150Z,105.47
2023-06-27T08:08:13.064Z,105.32
2023-06-27T08:09:13.525Z,101.79
2023-06-27T08:10:13.151Z,100.65
2023-06-27T08:11:13.111Z,104.17
2023-06-27T08:12:13.131Z,108.85
2023-06-27T08:13:13.158Z,104.02
2023-06-27T08:14:13.150Z,102.81
2023-06-27T08:15:13.167Z,100.56
2023-06-27T08:16:13.209Z,105.61
2023-06-27T08:17:13.242Z,117.12
2023-06-27T08:18:13.303Z,107.75
2023-06-27T08:19:13.252Z,104.79
2023-06-27T08:20:13.305Z,103.91
2023-06-27T08:21:13.334Z,107.20
2023-06-27T08:22:13.320Z,117.85
2023-06-27T08:23:13.346Z,119.86
2023-06-27T08:24:13.524Z,155.50
2023-06-27T08:25:13.406Z,130.47
2023-06-27T08:26:13.440Z,108.82
2023-06-27T08:27:13.471Z,97.93
2023-06-27T08:28:13.518Z,103.69
2023-06-27T08:29:13.539Z,105.97
2023-06-27T08:30:13.571Z,109.45
2023-06-27T08:31:13.705Z,92.31
2023-06-27T08:32:13.662Z,97.75
2023-06-27T08:33:13.770Z,102.80
2023-06-27T08:34:13.736Z,111.78
2023-06-27T08:35:13.769Z,98.57
2023-06-27T08:36:13.878Z,101.52
2023-06-27T08:37:13.845Z,113.70
2023-06-27T08:38:13.895Z,96.99
2023-06-27T08:39:13.985Z,115.05
2023-06-27T08:40:13.994Z,125.99
2023-06-27T08:41:14.012Z,122.45
2023-06-27T08:42:14.018Z,139.21
2023-06-27T08:43:14.054Z,148.23
2023-06-27T08:44:14.091Z,163.06
2023-06-27T08:45:14.098Z,182.65
2023-06-27T08:46:14.124Z,191.70
2023-06-27T08:47:14.116Z,195.94
2023-06-27T08:48:14.110Z,198.59
2023-06-27T08:49:14.112Z,205.49
2023-06-27T08:50:14.087Z,201.49
2023-06-27T08:51:14.105Z,193.64
2023-06-27T08:52:14.101Z,206.46
2023-06-27T08:53:14.104Z,210.44
2023-06-27T08:54:14.106Z,228.27
2023-06-27T08:55:14.154Z,232.89
2023-06-27T08:56:14.116Z,234.83
2023-06-27T08:57:14.163Z,239.07
2023-06-27T08:58:14.187Z,236.37
2023-06-27T08:59:14.527Z,234.44
2023-06-27T09:00:14.307Z,232.27
2023-06-27T09:01:14.404Z,217.74
2023-06-27T09:02:14.385Z,222.51
2023-06-27T09:03:14.530Z,209.07
2023-06-27T09:04:14.706Z,195.83
2023-06-27T09:05:14.533Z,182.41
2023-06-27T09:06:14.506Z,146.39
2023-06-27T09:07:14.550Z,125.68
2023-06-27T09:08:14.544Z,116.54
2023-06-27T09:09:15.009Z,126.16
2023-06-27T09:10:14.571Z,117.31
2023-06-27T09:11:14.550Z,101.81
2023-06-27T09:12:14.543Z,94.32
2023-06-27T09:13:14.573Z,111.75
2023-06-27T09:14:14.590Z,134.51
2023-06-27T09:15:14.596Z,141.92
2023-06-27T09:16:14.730Z,146.93
2023-06-27T09:17:14.593Z,167.41
2023-06-27T09:18:14.629Z,161.35
2023-06-27T09:19:14.643Z,172.52
2023-06-27T09:20:14.645Z,176.57
2023-06-27T09:21:14.621Z,162.39
2023-06-27T09:22:14.613Z,159.14
2023-06-27T09:23:14.597Z,157.18
2023-06-27T09:24:15.109Z,157.42
2023-06-27T09:25:14.594Z,155.42
2023-06-27T09:26:14.582Z,156.82
2023-06-27T09:27:14.606Z,155.31
2023-06-27T09:28:14.618Z,153.52
2023-06-27T09:29:15.018Z,136.33
2023-06-27T09:30:14.658Z,128.58
2023-06-27T09:31:14.738Z,146.30
2023-06-27T09:32:14.620Z,156.72
2023-06-27T09:33:14.605Z,150.74
2023-06-27T09:34:15.033Z,146.21
2023-06-27T09:35:15.541Z,138.57
2023-06-27T09:36:14.658Z,140.92
2023-06-27T09:39:15.055Z,119.56
2023-06-27T09:40:14.588Z,122.43
2023-06-27T09:41:14.564Z,115.50
2023-06-27T09:42:14.581Z,122.86
2023-06-27T09:43:14.652Z,113.76
2023-06-27T09:44:14.638Z,120.82
2023-06-27T09:45:14.577Z,119.88
2023-06-27T09:46:14.535Z,125.43
2023-06-27T09:47:14.552Z,122.76
2023-06-27T09:48:14.542Z,110.84
2023-06-27T09:49:15.034Z,92.09
2023-06-27T09:50:14.507Z,85.34
2023-06-27T09:51:14.512Z,82.78
2023-06-27T09:52:14.495Z,79.97
2023-06-27T09:53:14.486Z,75.06
2023-06-27T09:54:17.677Z,85.81
2023-06-27T09:55:14.477Z,75.76
2023-06-27T09:56:14.488Z,71.91
2023-06-27T09:57:14.516Z,60.82
2023-06-27T09:58:14.456Z,58.20
2023-06-27T09:59:23.042Z,55.52
2023-06-27T10:00:15.454Z,53.01
2023-06-27T10:01:14.457Z,48.84
2023-06-27T10:02:14.476Z,48.02
2023-06-27T10:03:14.506Z,45.67
2023-06-27T10:04:14.465Z,50.73
2023-06-27T10:05:14.504Z,55.11
2023-06-27T10:06:14.635Z,53.06
2023-06-27T10:07:14.656Z,52.33
2023-06-27T10:08:14.408Z,45.32
2023-06-27T10:09:14.445Z,45.99
2023-06-27T10:10:14.407Z,47.08
2023-06-27T10:11:14.373Z,48.05
2023-06-27T10:12:14.373Z,49.23
2023-06-27T10:13:14.394Z,45.10
2023-06-27T10:14:14.583Z,41.65
2023-06-27T10:15:14.354Z,31.86
2023-06-27T10:16:14.350Z,44.13
2023-06-27T10:17:14.517Z,49.12
2023-06-27T10:18:14.339Z,46.49
2023-06-27T10:19:14.370Z,42.03
2023-06-27T10:20:14.330Z,43.42
2023-06-27T10:21:14.316Z,37.99
2023-06-27T10:22:14.316Z,33.44
2023-06-27T10:23:14.366Z,38.62
2023-06-27T10:24:14.347Z,47.07
2023-06-27T10:25:14.301Z,40.90
2023-06-27T10:26:14.301Z,59.59
2023-06-27T10:27:14.466Z,64.85
2023-06-27T10:28:14.271Z,76.52
2023-06-27T10:29:14.294Z,95.50
2023-06-27T10:30:14.262Z,99.42
2023-06-27T10:31:14.326Z,127.16
2023-06-27T10:32:14.259Z,129.99
2023-06-27T10:33:14.268Z,142.44
2023-06-27T10:34:14.551Z,151.71
2023-06-27T10:35:14.321Z,161.30
2023-06-27T10:36:14.423Z,156.87
2023-06-27T10:37:14.409Z,150.95
2023-06-27T10:38:14.437Z,149.80
2023-06-27T10:39:14.550Z,152.91
2023-06-27T10:40:15.161Z,137.84
2023-06-27T10:41:14.624Z,136.24
2023-06-27T10:42:14.625Z,125.34
2023-06-27T10:43:14.648Z,129.22
2023-06-27T10:44:14.673Z,132.89
2023-06-27T10:45:15.044Z,132.47
2023-06-27T10:46:14.705Z,121.06
2023-06-27T10:47:14.698Z,126.20
2023-06-27T10:48:14.804Z,129.14
2023-06-27T10:49:15.073Z,128.60
2023-06-27T10:50:14.781Z,129.40
2023-06-27T10:51:14.747Z,126.46
2023-06-27T10:52:14.801Z,124.67
2023-06-27T10:53:14.865Z,127.61
2023-06-27T10:54:14.846Z,132.72
2023-06-27T10:55:14.920Z,135.32
2023-06-27T10:56:14.887Z,123.51
2023-06-27T10:57:14.915Z,123.15
2023-06-27T10:58:14.951Z,129.58
2023-06-27T10:59:14.963Z,125.61
2023-06-27T11:00:14.967Z,116.77
2023-06-27T11:01:14.998Z,133.75
2023-06-27T11:02:15.154Z,127.50
2023-06-27T11:03:15.218Z,132.97
2023-06-27T11:04:15.330Z,130.30
2023-06-27T11:05:15.246Z,137.90
2023-06-27T11:06:15.233Z,126.64
2023-06-27T11:07:15.221Z,124.66
2023-06-27T11:08:15.249Z,130.07
2023-06-27T11:09:15.298Z,130.31
2023-06-27T11:10:15.333Z,134.15
2023-06-27T11:11:15.395Z,131.87
2023-06-27T11:12:15.463Z,128.11
2023-06-27T11:13:15.468Z,125.16
2023-06-27T11:14:15.480Z,127.57
2023-06-27T11:15:15.529Z,135.30
2023-06-27T11:16:15.572Z,149.13
2023-06-27T11:17:15.621Z,162.40
2023-06-27T11:18:15.671Z,174.05
2023-06-27T11:19:20.663Z,196.37
2023-06-27T11:20:16.721Z,196.89
2023-06-27T11:21:16.681Z,199.39
2023-06-27T11:22:15.718Z,204.78
2023-06-27T11:23:15.708Z,214.41
2023-06-27T11:24:15.728Z,227.26
2023-06-27T11:25:15.707Z,232.30
2023-06-27T11:26:15.697Z,233.07
2023-06-27T11:27:15.673Z,240.11
2023-06-27T11:28:15.680Z,243.49
2023-06-27T11:29:15.689Z,246.00
2023-06-27T11:30:15.662Z,250.00
2023-06-27T11:31:15.664Z,249.99
2023-06-27T11:32:15.653Z,249.82
2023-06-27T11:33:15.688Z,249.86
2023-06-27T11:34:15.758Z,250.00
2023-06-27T11:35:15.776Z,250.00
2023-06-27T11:36:15.804Z,249.85
2023-06-27T11:37:15.854Z,250.00
2023-06-27T11:38:15.892Z,248.84
2023-06-27T11:39:15.940Z,250.00
2023-06-27T11:40:15.954Z,250.00
2023-06-27T11:41:15.997Z,249.39
2023-06-27T11:42:16.050Z,248.59
2023-06-27T11:43:16.098Z,248.65
2023-06-27T11:44:19.096Z,250.06
2023-06-27T11:45:16.091Z,250.00
2023-06-27T11:46:16.082Z,250.00
2023-06-27T11:47:16.081Z,249.02
2023-06-27T11:48:16.120Z,249.28
2023-06-27T11:49:16.075Z,249.82
2023-06-27T11:50:16.061Z,249.24
2023-06-27T11:51:16.054Z,249.61
2023-06-27T11:52:16.058Z,249.54
2023-06-27T11:53:16.053Z,250.00
2023-06-27T11:54:16.069Z,248.91
2023-06-27T11:55:16.060Z,249.17
2023-06-27T11:57:16.110Z,249.59
2023-06-27T11:58:16.009Z,249.99
2023-06-27T11:59:16.028Z,250.63
2023-06-27T12:00:18.075Z,252.40
2023-06-27T12:01:16.053Z,249.78
2023-06-27T12:02:15.984Z,250.45
2023-06-27T12:03:16.160Z,252.02
2023-06-27T12:04:16.069Z,253.65
2023-06-27T12:05:16.000Z,258.18
2023-06-27T12:06:17.508Z,249.73
2023-06-27T12:07:16.063Z,249.79
2023-06-27T12:08:15.945Z,250.11
2023-06-27T12:09:15.964Z,250.28
2023-06-27T12:10:15.945Z,250.82
2023-06-27T12:11:15.959Z,251.35
2023-06-27T12:12:18.785Z,249.39
2023-06-27T12:13:15.985Z,249.46
2023-06-27T12:14:15.936Z,249.82
2023-06-27T12:15:15.926Z,250.16
2023-06-27T12:16:15.930Z,250.90
2023-06-27T12:17:15.890Z,251.31
2023-06-27T12:18:18.157Z,249.40
2023-06-27T12:19:15.883Z,249.45
2023-06-27T12:20:15.909Z,249.24
2023-06-27T12:21:15.868Z,247.84
2023-06-27T12:22:15.857Z,248.03
2023-06-27T12:23:15.881Z,250.02
2023-06-27T12:24:15.930Z,248.13
2023-06-27T12:25:16.002Z,195.23
2023-06-27T12:26:16.010Z,154.45
2023-06-27T12:27:16.048Z,124.52
2023-06-27T12:28:16.067Z,106.23
2023-06-27T12:29:17.532Z,97.17
2023-06-27T12:30:16.033Z,79.93
2023-06-27T12:31:16.045Z,67.21
2023-06-27T12:32:16.094Z,64.67
2023-06-27T12:33:16.018Z,65.30
2023-06-27T12:34:16.008Z,70.78
2023-06-27T12:35:16.023Z,87.05
2023-06-27T12:36:16.018Z,97.77
2023-06-27T12:37:15.992Z,95.31
2023-06-27T12:38:16.028Z,104.72